Latest Weather Observations for Cabramurra

IDN60801

Issued at 4:32 pm EDT Sunday 26 February 2017 (issued every 30 minutes, with the page automatically refreshed every 10 minutes)

About weather observations | Map of weather stations | Latest weather observations for NSW | Other Formats
Station Details ID: 072161 Name: CABRAMURRA SMHEA AWS Lat: -35.94 Lon: 148.38 Height: 1482.4 m
Data from the previous 72 hours. | See also: Recent months at Cabramurra
Date/Time
EDT
Temp
°C
App
Temp
°C
Dew
Point
°C
Rel
Hum
%
Delta-T
°C
Wind Press
QNH
hPa
Press
MSL
hPa
Rain since
9am
mm
Dir  Spd
km/h
Gust
km/h
Spd
kts
Gust
kts
26/04:30pm 18.1 15.0 3.6 38 7.3 SSE 9 13 5 7 - - 0.0
26/04:00pm 16.9 15.5 5.5 47 5.9 SSW 2 11 1 6 - - 0.0
26/03:30pm 18.3 16.8 8.3 52 5.5 SW 6 9 3 5 - - 0.0
26/03:00pm 16.8 15.0 8.0 56 4.8 S 7 9 4 5 - - 0.0
26/02:30pm 16.2 14.5 8.4 60 4.3 WSW 7 11 4 6 - - 0.0
26/02:00pm 14.9 12.6 9.1 68 3.2 S 11 15 6 8 - - 0.0
26/01:30pm 15.0 13.4 8.9 67 3.4 SSW 7 13 4 7 - - 0.0
26/01:00pm 15.3 13.6 8.5 64 3.7 E 7 13 4 7 - - 0.0
26/12:30pm 14.9 11.9 9.1 68 3.2 ESE 15 20 8 11 - - 0.0
26/12:00pm 14.2 10.6 8.2 67 3.2 E 17 20 9 11 - - 0.0
26/11:30am 12.9 8.6 7.8 71 2.7 E 20 30 11 16 - - 0.0
26/11:00am 11.8 6.6 7.3 74 2.4 ESE 24 30 13 16 - - 0.0
26/10:30am 11.6 6.0 7.3 75 2.2 ESE 26 35 14 19 - - 0.0
26/10:00am 11.0 5.1 7.5 79 1.8 ESE 28 41 15 22 - - 0.0
26/09:30am 10.8 4.5 7.5 80 1.7 ESE 30 41 16 22 - - 0.0
26/09:00am 9.3 2.4 7.1 86 1.1 ESE 33 44 18 24 - - 0.0
26/08:30am 8.1 2.9 7.2 94 0.5 ESE 24 37 13 20 - - 0.0
26/08:00am 7.0 0.6 6.9 99 0.1 ESE 30 44 16 24 - - 0.0
26/07:48am 6.9 0.1 6.8 99 0.1 ESE 32 52 17 28 - - 0.0
26/07:30am 6.8 -0.6 6.7 99 0.1 ESE 35 46 19 25 - - 0.0
26/07:00am 6.8 0.3 6.7 99 0.1 ESE 30 44 16 24 - - 0.0
26/06:30am 7.0 -0.7 6.9 99 0.1 ESE 37 48 20 26 - - 0.0
26/06:00am 7.1 -1.0 7.0 99 0.1 ESE 39 52 21 28 - - 0.0
26/05:30am 7.3 -0.8 7.2 99 0.1 ESE 39 54 21 29 - - 0.0
26/05:00am 7.3 -1.1 7.2 99 0.1 ESE 41 54 22 29 - - 0.0
26/04:30am 7.4 -1.0 7.3 99 0.1 ESE 41 59 22 32 - - 0.0
26/04:00am 7.5 -0.9 7.4 99 0.1 ESE 41 54 22 29 - - 0.0
26/03:30am 7.8 1.0 7.7 99 0.1 ESE 33 48 18 26 - - 0.0
26/03:00am 8.0 0.1 7.9 99 0.1 ESE 39 56 21 30 - - 0.0
26/02:30am 8.6 0.0 8.3 98 0.2 ESE 43 54 23 29 - - 0.0
26/02:00am 8.9 0.2 8.6 98 0.2 ESE 44 56 24 30 - - 0.0
26/01:48am 8.9 0.8 8.8 99 0.1 ESE 41 59 22 32 - - 0.0
26/01:30am 8.9 0.8 8.8 99 0.1 ESE 41 54 22 29 - - 0.0
26/01:02am 9.1 0.7 9.0 99 0.1 ESE 43 61 23 33 - - 0.0
26/01:00am 9.1 0.5 9.0 99 0.1 ESE 44 61 24 33 - - 0.0
26/12:49am 9.1 0.7 9.0 99 0.1 ESE 43 61 23 33 - - 0.0
26/12:30am 9.1 -0.2 9.0 99 0.1 ESE 48 59 26 32 - - 0.0
26/12:00am 9.2 0.3 9.1 99 0.1 ESE 46 59 25 32 - - 0.0
 
Date/Time
EDT
Temp
°C
App
Temp
°C
Dew
Point
°C
Rel
Hum
%
Delta-T
°C
Wind Press
QNH
hPa
Press
MSL
hPa
Rain since
9am
mm
Dir  Spd
km/h
Gust
km/h
Spd
kts
Gust
kts
25/11:30pm 9.3 0.0 9.2 99 0.1 ESE 48 63 26 34 - - 0.0
25/11:00pm 9.3 0.0 9.2 99 0.1 ESE 48 61 26 33 - - 0.0
25/10:30pm 9.6 1.0 8.8 95 0.4 ESE 44 56 24 30 - - 0.0
25/10:00pm 9.6 1.6 9.0 96 0.3 ESE 41 52 22 28 - - 0.0
25/09:30pm 9.8 1.2 8.9 94 0.5 ESE 44 57 24 31 - - 0.0
25/09:00pm 10.1 1.6 8.7 91 0.7 ESE 43 57 23 31 - - 0.0
25/08:30pm 10.4 2.3 8.7 89 0.9 ESE 41 52 22 28 - - 0.0
25/08:00pm 10.8 3.1 8.6 86 1.2 ESE 39 52 21 28 - - 0.0
25/07:30pm 11.4 3.6 8.4 82 1.6 ESE 39 50 21 27 - - 0.0
25/07:00pm 12.6 5.9 8.1 74 2.4 ESE 33 43 18 23 - - 0.0
25/06:30pm 13.6 7.4 8.0 69 3.0 ESE 30 41 16 22 - - 0.0
25/06:00pm 14.1 8.4 8.3 68 3.1 ESE 28 41 15 22 - - 0.0
25/05:30pm 14.2 8.2 8.6 69 3.1 ESE 30 39 16 21 - - 0.0
25/05:00pm 14.6 9.8 8.8 68 3.2 ESE 24 35 13 19 - - 0.0
25/04:30pm 14.6 10.7 9.4 71 2.9 ESE 20 32 11 17 - - 0.0
25/04:00pm 13.3 8.0 8.6 73 2.6 ESE 26 39 14 21 - - 0.0
25/03:30pm 13.9 8.2 9.7 76 2.3 SE 30 41 16 22 - - 0.0
25/03:00pm 14.2 8.8 9.4 73 2.7 ESE 28 39 15 21 - - 0.0
25/02:30pm 15.3 11.4 10.7 74 2.6 ESE 22 32 12 17 - - 0.0
25/02:00pm 15.2 11.0 9.6 69 3.1 ESE 22 32 12 17 - - 0.0
25/01:30pm 15.6 12.2 10.6 72 2.9 E 19 24 10 13 - - 0.0
25/01:00pm 15.2 11.6 10.4 73 2.7 ESE 20 30 11 16 - - 0.0
25/12:30pm 13.6 9.7 9.6 77 2.2 ESE 20 26 11 14 - - 0.0
25/12:00pm 14.8 11.7 10.2 74 2.6 E 17 22 9 12 - - 0.0
25/11:30am 13.1 9.3 9.9 81 1.8 E 20 26 11 14 - - 0.0
25/11:00am 12.2 7.5 9.4 83 1.5 ENE 24 30 13 16 - - 0.0
25/10:30am 11.8 6.3 9.0 83 1.5 E 28 33 15 18 - - 0.0
25/10:00am 11.6 6.6 9.5 87 1.1 E 26 35 14 19 - - 0.0
25/09:30am 10.5 5.9 9.7 95 0.4 ESE 24 33 13 18 - - 0.0
25/09:00am 10.3 5.4 9.8 97 0.3 E 26 37 14 20 - - 0.0
25/08:30am 10.3 5.1 10.1 99 0.1 E 28 37 15 20 - - 0.0
25/08:00am 10.0 4.7 9.9 99 0.1 E 28 35 15 19 - - 0.0
25/07:30am 9.7 4.3 9.6 99 0.1 E 28 37 15 20 - - 0.0
25/07:00am 9.7 3.9 9.6 99 0.1 E 30 37 16 20 - - 0.0
25/06:30am 9.8 4.5 9.7 99 0.1 E 28 35 15 19 - - 0.0
25/06:00am 9.9 4.6 9.8 99 0.1 E 28 37 15 20 - - 0.0
25/05:30am 10.1 4.5 10.0 99 0.1 E 30 39 16 21 - - 0.0
25/05:00am 10.1 4.8 10.0 99 0.1 E 28 35 15 19 - - 0.0
25/04:30am 10.1 4.8 10.0 99 0.1 E 28 35 15 19 - - 0.0
25/04:00am 9.9 4.6 9.8 99 0.1 ESE 28 35 15 19 - - 0.0
25/03:30am 9.9 5.0 9.8 99 0.1 ESE 26 35 14 19 - - 0.0
25/03:00am 9.9 4.6 9.8 99 0.1 ESE 28 35 15 19 - - 0.0
25/02:30am 10.1 4.8 10.0 99 0.1 ESE 28 37 15 20 - - 0.0
25/02:00am 10.2 5.0 10.1 99 0.1 ESE 28 39 15 21 - - 0.0
25/01:30am 10.3 4.1 10.1 99 0.1 ESE 33 44 18 24 - - 0.0
25/01:00am 10.5 4.4 10.3 99 0.1 E 33 44 18 24 - - 0.0
25/12:30am 10.7 4.6 10.5 99 0.1 ESE 33 44 18 24 - - 0.0
25/12:00am 10.8 4.4 10.6 99 0.1 ESE 35 46 19 25 - - 0.0
 
Date/Time
EDT
Temp
°C
App
Temp
°C
Dew
Point
°C
Rel
Hum
%
Delta-T
°C
Wind Press
QNH
hPa
Press
MSL
hPa
Rain since
9am
mm
Dir  Spd
km/h
Gust
km/h
Spd
kts
Gust
kts
24/11:30pm 10.8 4.7 10.6 99 0.1 ESE 33 44 18 24 - - 0.0
24/11:00pm 11.1 4.4 10.9 99 0.1 ESE 37 48 20 26 - - 0.0
24/10:40pm 11.4 5.5 11.2 99 0.1 ESE 33 52 18 28 - - 0.0
24/10:30pm 11.7 6.1 11.5 99 0.1 ESE 32 44 17 24 - - 0.0
24/10:00pm 12.4 6.4 12.2 99 0.1 ESE 35 48 19 26 - - 0.0
24/09:30pm 12.9 6.5 12.0 94 0.5 ESE 37 46 20 25 - - 0.0
24/09:00pm 13.5 8.0 11.9 90 0.9 ESE 32 44 17 24 - - 0.0
24/08:30pm 14.4 7.9 11.7 84 1.6 ESE 37 48 20 26 - - 0.0
24/08:00pm 15.9 11.0 11.3 74 2.7 SE 28 35 15 19 - - 0.0
24/07:46pm 16.9 13.0 9.6 62 4.1 SE 20 44 11 24 - - 0.0
24/07:30pm 19.5 16.0 1.5 30 8.8 SW 9 13 5 7 - - 0.0
24/07:00pm 20.7 16.8 1.1 27 9.6 SW 11 15 6 8 - - 0.0
24/06:30pm 21.7 17.5 1.9 27 10.0 WSW 13 20 7 11 - - 0.0
24/06:00pm 22.0 17.7 1.1 25 10.4 WSW 13 26 7 14 - - 0.0
24/05:30pm 22.4 17.4 1.4 25 10.5 W 17 26 9 14 - - 0.0
24/05:00pm 22.4 17.0 -1.6 20 11.4 W 17 30 9 16 - - 0.0
24/04:30pm 22.7 18.2 -0.1 22 11.1 W 13 22 7 12 - - 0.0
24/04:00pm 22.3 18.3 2.9 28 10.0 WNW 13 20 7 11 - - 0.0
24/03:30pm 21.5 16.8 1.2 26 10.1 WNW 15 24 8 13 - - 0.0
24/03:00pm 22.4 18.0 4.5 31 9.5 W 17 28 9 15 - - 0.0
24/02:30pm 21.5 16.8 0.7 25 10.2 W 15 22 8 12 - - 0.0
24/02:00pm 21.2 17.2 4.7 34 8.7 WNW 15 24 8 13 - - 0.0
24/01:30pm 20.3 15.6 5.1 37 8.0 WNW 19 30 10 16 - - 0.0
24/01:00pm 20.3 15.5 4.8 36 8.2 WNW 19 30 10 16 - - 0.0
24/12:30pm 19.8 16.2 8.2 47 6.5 WNW 17 28 9 15 - - 0.0
24/12:00pm 19.6 16.4 8.3 48 6.3 WNW 15 22 8 12 - - 0.0
24/11:30am 18.8 15.2 6.6 45 6.6 WNW 15 19 8 10 - - 0.0
24/11:00am 18.6 15.0 6.8 46 6.4 WNW 15 20 8 11 - - 0.0
24/10:30am 18.9 15.4 5.4 41 7.1 NW 13 19 7 10 - - 0.0
24/10:00am 18.5 14.9 5.0 41 7.0 NW 13 19 7 10 - - 0.0
24/09:30am 18.2 14.3 5.4 43 6.7 NNW 15 19 8 10 - - 0.0
24/09:00am 18.1 15.1 4.3 40 7.1 N 9 13 5 7 - - 0.0
24/08:30am 17.4 14.2 3.0 38 7.2 N 9 11 5 6 - - 0.0
24/08:00am 17.0 13.7 2.6 38 7.1 N 9 11 5 6 - - 0.0
24/07:30am 16.6 13.6 1.1 35 7.4 N 6 9 3 5 - - 0.0
24/07:00am 16.2 13.2 1.9 38 6.9 NNW 7 9 4 5 - - 0.0
24/06:30am 16.3 13.0 0.4 34 7.5 NNW 7 9 4 5 - - 0.0
24/06:00am 16.8 12.7 0.0 32 7.9 NNW 11 13 6 7 - - 0.0
24/05:30am 17.9 13.5 0.1 30 8.4 N 13 15 7 8 - - 0.0
24/05:00am 17.8 13.7 0.0 30 8.4 N 11 15 6 8 - - 0.0
24/04:30am 17.6 13.9 -0.2 30 8.3 N 9 13 5 7 - - 0.0
24/04:00am 18.1 14.1 0.3 30 8.5 N 11 13 6 7 - - 0.0
24/03:30am 18.3 14.7 0.4 30 8.5 N 9 11 5 6 - - 0.0
24/03:00am 18.4 14.9 1.4 32 8.3 N 9 11 5 6 - - 0.0
24/02:30am 18.1 14.6 1.2 32 8.2 NNE 9 11 5 6 - - 0.0
24/02:00am 18.0 14.5 1.1 32 8.2 NNE 9 11 5 6 - - 0.0
24/01:30am 18.6 15.4 0.7 30 8.6 N 7 9 4 5 - - 0.0
24/01:00am 18.9 15.7 1.0 30 8.7 NNW 7 9 4 5 - - 0.0
24/12:30am 18.9 15.7 1.0 30 8.7 NW 7 11 4 6 - - 0.0
24/12:00am 18.9 17.1 1.0 30 8.7 CALM 0 0 0 0 - - 0.0
 
Date/Time
EDT
Temp
°C
App
Temp
°C
Dew
Point
°C
Rel
Hum
%
Delta-T
°C
Wind Press
QNH
hPa
Press
MSL
hPa
Rain since
9am
mm
Dir  Spd
km/h
Gust
km/h
Spd
kts
Gust
kts
23/11:30pm 18.8 16.4 -0.1 28 9.0 N 2 6 1 3 - - 0.0
23/11:00pm 19.2 16.0 -0.2 27 9.2 N 6 7 3 4 - - 0.0
23/10:30pm 19.2 16.0 -0.7 26 9.3 N 6 6 3 3 - - 0.0
23/10:00pm 19.3 16.1 -0.7 26 9.4 NW 6 9 3 5 - - 0.0
23/09:30pm 19.8 15.6 -0.8 25 9.7 W 11 19 6 10 - - 0.0
23/09:00pm 20.6 15.2 -1.2 23 10.2 W 17 26 9 14 - - 0.0
23/08:30pm 20.9 15.2 -1.0 23 10.4 WNW 19 28 10 15 - - 0.0
23/08:00pm 21.4 15.1 -1.2 22 10.7 WNW 22 32 12 17 - - 0.0
23/07:30pm 22.4 16.5 -1.0 21 11.2 WNW 20 32 11 17 - - 0.0
23/07:00pm 23.2 16.4 -1.7 19 11.8 WNW 24 33 13 18 - - 0.0
23/06:30pm 24.0 17.9 0.4 21 11.7 WNW 22 39 12 21 - - 0.0
23/06:00pm 24.3 17.5 0.6 21 11.8 WNW 26 41 14 22 - - 0.0
23/05:30pm 24.7 17.2 0.9 21 12.0 WNW 30 41 16 22 - - 0.0
23/05:00pm 24.3 17.1 0.6 21 11.8 NW 28 48 15 26 - - 0.0
23/04:50pm 24.7 17.5 0.9 21 12.0 NW 28 50 15 27 - - 0.0

Other Formats:

Comma delimited format used in spreadsheet applications
http://www.bom.gov.au/fwo/IDN60801/IDN60801.95916.axf

JavaScript Object Notation format (JSON) in row-major order
http://www.bom.gov.au/fwo/IDN60801/IDN60801.95916.json